sensor_id;sensor_type;location;lat;lon;timestamp;P1;durP1;ratioP1;P2;durP2;ratioP2
9334;SDS011;4706;41.844;26.082;2023-09-08T00:01:28;6.05;;;4.88;;
9334;SDS011;4706;41.844;26.082;2023-09-08T00:03:54;5.35;;;4.78;;
9334;SDS011;4706;41.844;26.082;2023-09-08T00:06:20;5.68;;;5.18;;
9334;SDS011;4706;41.844;26.082;2023-09-08T00:08:45;6.68;;;4.95;;
9334;SDS011;4706;41.844;26.082;2023-09-08T00:11:11;5.95;;;4.78;;
9334;SDS011;4706;41.844;26.082;2023-09-08T00:13:36;6.90;;;5.32;;
9334;SDS011;4706;41.844;26.082;2023-09-08T00:16:02;5.30;;;4.82;;
9334;SDS011;4706;41.844;26.082;2023-09-08T00:18:28;4.80;;;4.43;;
9334;SDS011;4706;41.844;26.082;2023-09-08T00:20:53;5.47;;;4.82;;
9334;SDS011;4706;41.844;26.082;2023-09-08T00:23:19;7.22;;;4.95;;
9334;SDS011;4706;41.844;26.082;2023-09-08T00:25:44;6.25;;;5.55;;
9334;SDS011;4706;41.844;26.082;2023-09-08T00:28:10;8.98;;;5.88;;
9334;SDS011;4706;41.844;26.082;2023-09-08T00:30:35;7.35;;;6.20;;
9334;SDS011;4706;41.844;26.082;2023-09-08T00:33:01;8.57;;;6.47;;
9334;SDS011;4706;41.844;26.082;2023-09-08T00:35:26;9.18;;;6.30;;
9334;SDS011;4706;41.844;26.082;2023-09-08T00:37:52;9.13;;;5.78;;
9334;SDS011;4706;41.844;26.082;2023-09-08T00:40:17;8.02;;;5.93;;
9334;SDS011;4706;41.844;26.082;2023-09-08T00:42:43;7.45;;;6.18;;
9334;SDS011;4706;41.844;26.082;2023-09-08T00:45:08;6.00;;;5.40;;
9334;SDS011;4706;41.844;26.082;2023-09-08T00:47:34;6.97;;;6.28;;
9334;SDS011;4706;41.844;26.082;2023-09-08T00:50:01;7.53;;;6.30;;
9334;SDS011;4706;41.844;26.082;2023-09-08T00:52:28;7.68;;;6.05;;
9334;SDS011;4706;41.844;26.082;2023-09-08T00:54:57;6.60;;;6.00;;
9334;SDS011;4706;41.844;26.082;2023-09-08T00:57:23;8.15;;;6.53;;
9334;SDS011;4706;41.844;26.082;2023-09-08T00:59:49;5.95;;;5.18;;
9334;SDS011;4706;41.844;26.082;2023-09-08T01:02:15;9.25;;;5.95;;
9334;SDS011;4706;41.844;26.082;2023-09-08T01:04:41;5.47;;;4.97;;
9334;SDS011;4706;41.844;26.082;2023-09-08T01:07:07;5.95;;;5.35;;
9334;SDS011;4706;41.844;26.082;2023-09-08T01:09:34;5.38;;;4.82;;
9334;SDS011;4706;41.844;26.082;2023-09-08T01:12:02;6.38;;;4.60;;
9334;SDS011;4706;41.844;26.082;2023-09-08T01:14:29;5.00;;;4.50;;
9334;SDS011;4706;41.844;26.082;2023-09-08T01:16:55;5.97;;;5.03;;
9334;SDS011;4706;41.844;26.082;2023-09-08T01:19:20;6.00;;;4.88;;
9334;SDS011;4706;41.844;26.082;2023-09-08T01:25:07;6.80;;;5.05;;
9334;SDS011;4706;41.844;26.082;2023-09-08T01:27:42;6.60;;;5.53;;
9334;SDS011;4706;41.844;26.082;2023-09-08T01:30:11;6.88;;;5.60;;
9334;SDS011;4706;41.844;26.082;2023-09-08T01:32:38;7.60;;;5.13;;
9334;SDS011;4706;41.844;26.082;2023-09-08T01:35:05;6.38;;;5.38;;
9334;SDS011;4706;41.844;26.082;2023-09-08T01:37:32;7.50;;;5.60;;
9334;SDS011;4706;41.844;26.082;2023-09-08T01:39:57;7.80;;;5.85;;
9334;SDS011;4706;41.844;26.082;2023-09-08T01:42:22;9.05;;;6.15;;
9334;SDS011;4706;41.844;26.082;2023-09-08T01:44:48;10.10;;;6.15;;
9334;SDS011;4706;41.844;26.082;2023-09-08T01:47:14;11.35;;;6.50;;
9334;SDS011;4706;41.844;26.082;2023-09-08T01:49:39;10.85;;;6.70;;
9334;SDS011;4706;41.844;26.082;2023-09-08T01:52:05;8.05;;;6.20;;
9334;SDS011;4706;41.844;26.082;2023-09-08T01:54:30;8.13;;;6.55;;
9334;SDS011;4706;41.844;26.082;2023-09-08T01:56:56;8.35;;;6.90;;
9334;SDS011;4706;41.844;26.082;2023-09-08T01:59:21;10.68;;;6.45;;
9334;SDS011;4706;41.844;26.082;2023-09-08T02:01:46;7.70;;;6.60;;
9334;SDS011;4706;41.844;26.082;2023-09-08T02:04:12;10.70;;;7.75;;
9334;SDS011;4706;41.844;26.082;2023-09-08T02:06:37;9.15;;;8.05;;
9334;SDS011;4706;41.844;26.082;2023-09-08T02:09:03;10.60;;;7.95;;
9334;SDS011;4706;41.844;26.082;2023-09-08T02:11:29;10.50;;;8.32;;
9334;SDS011;4706;41.844;26.082;2023-09-08T02:13:54;8.90;;;8.00;;
9334;SDS011;4706;41.844;26.082;2023-09-08T02:16:19;12.65;;;8.20;;
9334;SDS011;4706;41.844;26.082;2023-09-08T02:18:45;11.27;;;8.30;;
9334;SDS011;4706;41.844;26.082;2023-09-08T02:21:11;10.43;;;8.95;;
9334;SDS011;4706;41.844;26.082;2023-09-08T02:23:36;10.57;;;9.13;;
9334;SDS011;4706;41.844;26.082;2023-09-08T02:26:02;9.32;;;8.48;;
9334;SDS011;4706;41.844;26.082;2023-09-08T02:28:28;11.77;;;9.25;;
9334;SDS011;4706;41.844;26.082;2023-09-08T02:30:54;10.95;;;9.95;;
9334;SDS011;4706;41.844;26.082;2023-09-08T02:33:19;12.77;;;9.68;;
9334;SDS011;4706;41.844;26.082;2023-09-08T02:35:45;10.32;;;9.25;;
9334;SDS011;4706;41.844;26.082;2023-09-08T02:38:10;10.57;;;9.50;;
9334;SDS011;4706;41.844;26.082;2023-09-08T02:40:36;10.70;;;9.63;;
9334;SDS011;4706;41.844;26.082;2023-09-08T02:43:02;12.50;;;9.35;;
9334;SDS011;4706;41.844;26.082;2023-09-08T02:45:28;10.35;;;8.85;;
9334;SDS011;4706;41.844;26.082;2023-09-08T02:47:54;13.07;;;9.07;;
9334;SDS011;4706;41.844;26.082;2023-09-08T02:50:20;9.45;;;8.38;;
9334;SDS011;4706;41.844;26.082;2023-09-08T02:52:46;9.95;;;8.20;;
9334;SDS011;4706;41.844;26.082;2023-09-08T02:55:12;10.05;;;8.85;;
9334;SDS011;4706;41.844;26.082;2023-09-08T02:57:38;9.85;;;9.05;;
9334;SDS011;4706;41.844;26.082;2023-09-08T03:00:04;9.95;;;8.63;;
9334;SDS011;4706;41.844;26.082;2023-09-08T03:02:31;11.13;;;9.65;;
9334;SDS011;4706;41.844;26.082;2023-09-08T03:04:57;10.57;;;9.40;;
9334;SDS011;4706;41.844;26.082;2023-09-08T03:07:22;10.98;;;9.93;;
9334;SDS011;4706;41.844;26.082;2023-09-08T03:09:48;10.93;;;9.82;;
9334;SDS011;4706;41.844;26.082;2023-09-08T03:12:13;10.05;;;9.05;;
9334;SDS011;4706;41.844;26.082;2023-09-08T03:14:39;10.38;;;9.43;;
9334;SDS011;4706;41.844;26.082;2023-09-08T03:17:05;14.00;;;10.65;;
9334;SDS011;4706;41.844;26.082;2023-09-08T03:19:30;11.57;;;8.90;;
9334;SDS011;4706;41.844;26.082;2023-09-08T03:21:56;13.75;;;9.52;;
9334;SDS011;4706;41.844;26.082;2023-09-08T03:24:21;10.68;;;9.20;;
9334;SDS011;4706;41.844;26.082;2023-09-08T03:26:47;10.30;;;9.30;;
9334;SDS011;4706;41.844;26.082;2023-09-08T03:29:12;9.32;;;8.50;;
9334;SDS011;4706;41.844;26.082;2023-09-08T03:31:38;9.90;;;9.00;;
9334;SDS011;4706;41.844;26.082;2023-09-08T03:34:03;10.05;;;9.07;;
9334;SDS011;4706;41.844;26.082;2023-09-08T03:36:29;9.55;;;8.65;;
9334;SDS011;4706;41.844;26.082;2023-09-08T03:38:56;9.60;;;8.70;;
9334;SDS011;4706;41.844;26.082;2023-09-08T03:41:23;8.90;;;8.10;;
9334;SDS011;4706;41.844;26.082;2023-09-08T03:43:49;10.45;;;8.45;;
9334;SDS011;4706;41.844;26.082;2023-09-08T03:46:14;9.20;;;8.25;;
9334;SDS011;4706;41.844;26.082;2023-09-08T03:48:40;9.57;;;8.60;;
9334;SDS011;4706;41.844;26.082;2023-09-08T03:51:05;9.00;;;8.02;;
9334;SDS011;4706;41.844;26.082;2023-09-08T03:53:31;8.57;;;7.88;;
9334;SDS011;4706;41.844;26.082;2023-09-08T03:55:56;9.18;;;8.27;;
9334;SDS011;4706;41.844;26.082;2023-09-08T03:58:22;9.70;;;7.78;;
9334;SDS011;4706;41.844;26.082;2023-09-08T04:00:47;9.23;;;8.35;;
9334;SDS011;4706;41.844;26.082;2023-09-08T04:03:13;8.57;;;7.65;;
9334;SDS011;4706;41.844;26.082;2023-09-08T04:05:38;10.98;;;8.05;;
9334;SDS011;4706;41.844;26.082;2023-09-08T04:08:04;9.00;;;7.78;;
9334;SDS011;4706;41.844;26.082;2023-09-08T04:10:30;8.90;;;7.85;;
9334;SDS011;4706;41.844;26.082;2023-09-08T04:12:56;9.88;;;8.27;;
9334;SDS011;4706;41.844;26.082;2023-09-08T04:15:21;8.75;;;7.85;;
9334;SDS011;4706;41.844;26.082;2023-09-08T04:17:47;9.65;;;8.02;;
9334;SDS011;4706;41.844;26.082;2023-09-08T04:20:13;8.13;;;7.28;;
9334;SDS011;4706;41.844;26.082;2023-09-08T04:22:40;9.15;;;6.90;;
9334;SDS011;4706;41.844;26.082;2023-09-08T04:25:06;7.35;;;6.65;;
9334;SDS011;4706;41.844;26.082;2023-09-08T04:27:31;10.05;;;8.07;;
9334;SDS011;4706;41.844;26.082;2023-09-08T04:29:57;8.50;;;7.50;;
9334;SDS011;4706;41.844;26.082;2023-09-08T04:32:24;10.65;;;8.07;;
9334;SDS011;4706;41.844;26.082;2023-09-08T04:34:50;11.07;;;8.48;;
9334;SDS011;4706;41.844;26.082;2023-09-08T04:37:16;10.55;;;8.85;;
9334;SDS011;4706;41.844;26.082;2023-09-08T04:39:42;9.70;;;8.13;;
9334;SDS011;4706;41.844;26.082;2023-09-08T04:42:07;12.82;;;8.88;;
9334;SDS011;4706;41.844;26.082;2023-09-08T04:44:33;11.63;;;8.50;;
9334;SDS011;4706;41.844;26.082;2023-09-08T04:46:58;15.52;;;9.00;;
9334;SDS011;4706;41.844;26.082;2023-09-08T04:49:24;11.25;;;9.30;;
9334;SDS011;4706;41.844;26.082;2023-09-08T04:51:49;9.57;;;8.55;;
9334;SDS011;4706;41.844;26.082;2023-09-08T04:54:15;9.15;;;8.27;;
9334;SDS011;4706;41.844;26.082;2023-09-08T04:56:41;11.77;;;8.00;;
9334;SDS011;4706;41.844;26.082;2023-09-08T04:59:07;8.25;;;7.35;;
9334;SDS011;4706;41.844;26.082;2023-09-08T05:01:32;8.73;;;7.82;;
9334;SDS011;4706;41.844;26.082;2023-09-08T05:04:01;10.38;;;7.75;;
9334;SDS011;4706;41.844;26.082;2023-09-08T05:06:26;7.65;;;6.95;;
9334;SDS011;4706;41.844;26.082;2023-09-08T05:08:52;7.82;;;7.03;;
9334;SDS011;4706;41.844;26.082;2023-09-08T05:11:17;8.15;;;7.00;;
9334;SDS011;4706;41.844;26.082;2023-09-08T05:13:44;7.90;;;7.15;;
9334;SDS011;4706;41.844;26.082;2023-09-08T05:16:10;7.20;;;6.55;;
9334;SDS011;4706;41.844;26.082;2023-09-08T05:18:38;7.03;;;6.43;;
9334;SDS011;4706;41.844;26.082;2023-09-08T05:21:05;7.10;;;6.40;;
9334;SDS011;4706;41.844;26.082;2023-09-08T05:23:30;7.68;;;6.40;;
9334;SDS011;4706;41.844;26.082;2023-09-08T05:25:56;7.53;;;6.75;;
9334;SDS011;4706;41.844;26.082;2023-09-08T05:28:21;12.70;;;7.40;;
9334;SDS011;4706;41.844;26.082;2023-09-08T05:30:47;8.60;;;7.53;;
9334;SDS011;4706;41.844;26.082;2023-09-08T05:33:12;6.78;;;6.18;;
9334;SDS011;4706;41.844;26.082;2023-09-08T05:35:38;7.40;;;6.35;;
9334;SDS011;4706;41.844;26.082;2023-09-08T05:38:03;7.97;;;6.25;;
9334;SDS011;4706;41.844;26.082;2023-09-08T05:40:30;7.10;;;6.18;;
9334;SDS011;4706;41.844;26.082;2023-09-08T05:42:55;8.18;;;6.60;;
9334;SDS011;4706;41.844;26.082;2023-09-08T05:45:21;8.63;;;7.20;;
9334;SDS011;4706;41.844;26.082;2023-09-08T05:47:47;13.65;;;7.00;;
9334;SDS011;4706;41.844;26.082;2023-09-08T05:50:14;7.35;;;6.25;;
9334;SDS011;4706;41.844;26.082;2023-09-08T05:52:40;9.15;;;8.10;;
9334;SDS011;4706;41.844;26.082;2023-09-08T05:55:05;6.93;;;6.22;;
9334;SDS011;4706;41.844;26.082;2023-09-08T05:57:31;10.40;;;6.10;;
9334;SDS011;4706;41.844;26.082;2023-09-08T05:59:57;6.70;;;6.00;;
9334;SDS011;4706;41.844;26.082;2023-09-08T06:02:22;8.20;;;6.70;;
9334;SDS011;4706;41.844;26.082;2023-09-08T06:04:50;7.95;;;6.43;;
9334;SDS011;4706;41.844;26.082;2023-09-08T06:07:16;10.05;;;6.10;;
9334;SDS011;4706;41.844;26.082;2023-09-08T06:09:41;11.65;;;6.00;;
9334;SDS011;4706;41.844;26.082;2023-09-08T06:12:07;8.93;;;4.93;;
9334;SDS011;4706;41.844;26.082;2023-09-08T06:14:32;9.95;;;6.97;;
9334;SDS011;4706;41.844;26.082;2023-09-08T06:16:58;6.63;;;5.00;;
9334;SDS011;4706;41.844;26.082;2023-09-08T06:19:23;6.70;;;5.20;;
9334;SDS011;4706;41.844;26.082;2023-09-08T06:21:48;11.60;;;5.18;;
9334;SDS011;4706;41.844;26.082;2023-09-08T06:24:14;6.13;;;5.03;;
9334;SDS011;4706;41.844;26.082;2023-09-08T06:26:39;6.47;;;4.70;;
9334;SDS011;4706;41.844;26.082;2023-09-08T06:29:05;5.38;;;4.03;;
9334;SDS011;4706;41.844;26.082;2023-09-08T06:31:31;7.00;;;4.28;;
9334;SDS011;4706;41.844;26.082;2023-09-08T06:33:56;5.97;;;4.38;;
9334;SDS011;4706;41.844;26.082;2023-09-08T06:36:21;4.22;;;3.85;;
9334;SDS011;4706;41.844;26.082;2023-09-08T06:38:47;5.82;;;3.65;;
9334;SDS011;4706;41.844;26.082;2023-09-08T06:41:12;4.78;;;3.83;;
9334;SDS011;4706;41.844;26.082;2023-09-08T06:43:38;3.58;;;3.28;;
9334;SDS011;4706;41.844;26.082;2023-09-08T06:46:04;10.02;;;4.00;;
9334;SDS011;4706;41.844;26.082;2023-09-08T06:48:30;4.60;;;3.83;;
9334;SDS011;4706;41.844;26.082;2023-09-08T06:50:55;4.53;;;3.10;;
9334;SDS011;4706;41.844;26.082;2023-09-08T06:53:21;8.05;;;3.42;;
9334;SDS011;4706;41.844;26.082;2023-09-08T06:55:48;3.40;;;3.10;;
9334;SDS011;4706;41.844;26.082;2023-09-08T06:58:13;4.70;;;3.88;;
9334;SDS011;4706;41.844;26.082;2023-09-08T07:00:42;3.92;;;3.53;;
9334;SDS011;4706;41.844;26.082;2023-09-08T07:03:08;3.47;;;3.17;;
9334;SDS011;4706;41.844;26.082;2023-09-08T07:05:34;5.30;;;4.68;;
9334;SDS011;4706;41.844;26.082;2023-09-08T07:07:59;3.28;;;3.08;;
9334;SDS011;4706;41.844;26.082;2023-09-08T07:10:25;3.45;;;3.08;;
9334;SDS011;4706;41.844;26.082;2023-09-08T07:12:51;3.25;;;3.00;;
9334;SDS011;4706;41.844;26.082;2023-09-08T07:15:16;8.63;;;3.60;;
9334;SDS011;4706;41.844;26.082;2023-09-08T07:17:42;4.57;;;3.60;;
9334;SDS011;4706;41.844;26.082;2023-09-08T07:20:07;7.10;;;3.78;;
9334;SDS011;4706;41.844;26.082;2023-09-08T07:22:33;6.38;;;4.47;;
9334;SDS011;4706;41.844;26.082;2023-09-08T07:24:59;3.47;;;3.17;;
9334;SDS011;4706;41.844;26.082;2023-09-08T07:27:24;5.30;;;3.60;;
9334;SDS011;4706;41.844;26.082;2023-09-08T07:29:50;4.15;;;3.35;;
9334;SDS011;4706;41.844;26.082;2023-09-08T07:32:16;3.50;;;3.20;;
9334;SDS011;4706;41.844;26.082;2023-09-08T07:34:42;4.93;;;3.30;;
9334;SDS011;4706;41.844;26.082;2023-09-08T07:37:07;7.53;;;3.22;;
9334;SDS011;4706;41.844;26.082;2023-09-08T07:39:33;3.97;;;3.67;;
9334;SDS011;4706;41.844;26.082;2023-09-08T07:42:00;3.78;;;3.42;;
9334;SDS011;4706;41.844;26.082;2023-09-08T07:44:26;5.07;;;3.60;;
9334;SDS011;4706;41.844;26.082;2023-09-08T07:46:52;5.47;;;3.50;;
9334;SDS011;4706;41.844;26.082;2023-09-08T07:49:18;4.35;;;3.95;;
9334;SDS011;4706;41.844;26.082;2023-09-08T07:51:44;6.03;;;3.47;;
9334;SDS011;4706;41.844;26.082;2023-09-08T07:54:10;6.93;;;6.35;;
9334;SDS011;4706;41.844;26.082;2023-09-08T07:56:35;5.82;;;3.42;;
9334;SDS011;4706;41.844;26.082;2023-09-08T07:59:01;4.22;;;3.08;;
9334;SDS011;4706;41.844;26.082;2023-09-08T08:01:27;6.30;;;4.65;;
9334;SDS011;4706;41.844;26.082;2023-09-08T08:03:52;3.78;;;3.33;;
9334;SDS011;4706;41.844;26.082;2023-09-08T08:06:18;5.28;;;3.42;;
9334;SDS011;4706;41.844;26.082;2023-09-08T08:08:43;3.97;;;3.25;;
9334;SDS011;4706;41.844;26.082;2023-09-08T08:11:14;3.80;;;2.90;;
9334;SDS011;4706;41.844;26.082;2023-09-08T08:13:41;6.80;;;3.50;;
9334;SDS011;4706;41.844;26.082;2023-09-08T08:16:07;5.50;;;3.10;;
9334;SDS011;4706;41.844;26.082;2023-09-08T08:18:32;4.20;;;3.33;;
9334;SDS011;4706;41.844;26.082;2023-09-08T08:20:58;3.92;;;3.30;;
9334;SDS011;4706;41.844;26.082;2023-09-08T08:23:25;4.18;;;3.30;;
9334;SDS011;4706;41.844;26.082;2023-09-08T08:25:51;3.95;;;3.65;;
9334;SDS011;4706;41.844;26.082;2023-09-08T08:28:16;6.07;;;3.25;;
9334;SDS011;4706;41.844;26.082;2023-09-08T08:30:42;4.40;;;4.00;;
9334;SDS011;4706;41.844;26.082;2023-09-08T08:33:07;3.67;;;3.38;;
9334;SDS011;4706;41.844;26.082;2023-09-08T08:35:33;4.05;;;3.15;;
9334;SDS011;4706;41.844;26.082;2023-09-08T08:37:58;5.95;;;2.85;;
9334;SDS011;4706;41.844;26.082;2023-09-08T08:40:25;4.72;;;3.10;;
9334;SDS011;4706;41.844;26.082;2023-09-08T08:42:58;4.55;;;3.25;;
9334;SDS011;4706;41.844;26.082;2023-09-08T08:45:24;5.05;;;2.92;;
9334;SDS011;4706;41.844;26.082;2023-09-08T08:47:50;4.68;;;3.17;;
9334;SDS011;4706;41.844;26.082;2023-09-08T08:50:17;3.45;;;3.13;;
9334;SDS011;4706;41.844;26.082;2023-09-08T08:52:43;6.40;;;3.47;;
9334;SDS011;4706;41.844;26.082;2023-09-08T08:55:09;6.80;;;3.50;;
9334;SDS011;4706;41.844;26.082;2023-09-08T08:57:38;4.05;;;3.33;;
9334;SDS011;4706;41.844;26.082;2023-09-08T09:00:08;4.38;;;2.97;;
9334;SDS011;4706;41.844;26.082;2023-09-08T09:02:40;5.55;;;3.13;;
9334;SDS011;4706;41.844;26.082;2023-09-08T09:05:13;5.90;;;3.15;;
9334;SDS011;4706;41.844;26.082;2023-09-08T09:07:39;4.97;;;3.70;;
9334;SDS011;4706;41.844;26.082;2023-09-08T09:10:06;5.72;;;3.50;;
9334;SDS011;4706;41.844;26.082;2023-09-08T09:12:32;4.55;;;3.50;;
9334;SDS011;4706;41.844;26.082;2023-09-08T09:14:58;3.50;;;3.17;;
9334;SDS011;4706;41.844;26.082;2023-09-08T09:17:25;4.00;;;3.33;;
9334;SDS011;4706;41.844;26.082;2023-09-08T09:20:00;3.80;;;3.50;;
9334;SDS011;4706;41.844;26.082;2023-09-08T09:22:38;5.40;;;3.55;;
9334;SDS011;4706;41.844;26.082;2023-09-08T09:25:03;6.10;;;3.75;;
9334;SDS011;4706;41.844;26.082;2023-09-08T09:27:32;4.88;;;3.65;;
9334;SDS011;4706;41.844;26.082;2023-09-08T09:29:59;5.05;;;3.25;;
9334;SDS011;4706;41.844;26.082;2023-09-08T09:32:24;7.75;;;3.95;;
9334;SDS011;4706;41.844;26.082;2023-09-08T09:34:52;6.15;;;3.45;;
9334;SDS011;4706;41.844;26.082;2023-09-08T09:37:19;6.15;;;3.63;;
9334;SDS011;4706;41.844;26.082;2023-09-08T09:39:52;3.25;;;2.95;;
9334;SDS011;4706;41.844;26.082;2023-09-08T09:42:19;4.45;;;3.63;;
9334;SDS011;4706;41.844;26.082;2023-09-08T09:44:49;5.70;;;3.55;;
9334;SDS011;4706;41.844;26.082;2023-09-08T09:47:16;6.20;;;3.78;;
9334;SDS011;4706;41.844;26.082;2023-09-08T09:49:43;3.85;;;3.50;;
9334;SDS011;4706;41.844;26.082;2023-09-08T09:52:11;3.85;;;3.47;;
9334;SDS011;4706;41.844;26.082;2023-09-08T09:54:39;4.13;;;3.20;;
9334;SDS011;4706;41.844;26.082;2023-09-08T09:57:06;5.20;;;3.35;;
9334;SDS011;4706;41.844;26.082;2023-09-08T09:59:32;6.03;;;3.55;;
9334;SDS011;4706;41.844;26.082;2023-09-08T10:01:59;5.32;;;3.60;;
9334;SDS011;4706;41.844;26.082;2023-09-08T10:04:25;7.25;;;3.53;;
9334;SDS011;4706;41.844;26.082;2023-09-08T10:06:52;3.47;;;3.10;;
9334;SDS011;4706;41.844;26.082;2023-09-08T10:09:18;3.72;;;3.33;;
9334;SDS011;4706;41.844;26.082;2023-09-08T10:11:48;3.83;;;3.20;;
9334;SDS011;4706;41.844;26.082;2023-09-08T10:14:15;4.63;;;3.00;;
9334;SDS011;4706;41.844;26.082;2023-09-08T10:16:43;3.58;;;3.28;;
9334;SDS011;4706;41.844;26.082;2023-09-08T10:19:10;5.85;;;3.60;;
9334;SDS011;4706;41.844;26.082;2023-09-08T10:21:39;6.88;;;3.60;;
9334;SDS011;4706;41.844;26.082;2023-09-08T10:27:00;4.10;;;3.70;;
9334;SDS011;4706;41.844;26.082;2023-09-08T10:29:36;6.60;;;3.53;;
9334;SDS011;4706;41.844;26.082;2023-09-08T10:32:02;4.82;;;3.10;;
9334;SDS011;4706;41.844;26.082;2023-09-08T10:34:29;6.13;;;3.13;;
9334;SDS011;4706;41.844;26.082;2023-09-08T10:36:56;5.43;;;3.25;;
9334;SDS011;4706;41.844;26.082;2023-09-08T10:39:31;6.53;;;3.67;;
9334;SDS011;4706;41.844;26.082;2023-09-08T10:42:21;3.65;;;3.03;;
9334;SDS011;4706;41.844;26.082;2023-09-08T10:47:22;6.20;;;3.83;;
9334;SDS011;4706;41.844;26.082;2023-09-08T10:49:52;3.58;;;3.25;;
9334;SDS011;4706;41.844;26.082;2023-09-08T10:52:20;4.93;;;3.75;;
9334;SDS011;4706;41.844;26.082;2023-09-08T10:54:48;5.82;;;3.15;;
9334;SDS011;4706;41.844;26.082;2023-09-08T10:57:18;5.30;;;3.40;;
9334;SDS011;4706;41.844;26.082;2023-09-08T10:59:53;6.10;;;3.60;;
9334;SDS011;4706;41.844;26.082;2023-09-08T11:02:34;6.63;;;3.50;;
9334;SDS011;4706;41.844;26.082;2023-09-08T11:05:04;5.38;;;4.47;;
9334;SDS011;4706;41.844;26.082;2023-09-08T11:07:32;4.95;;;3.72;;
9334;SDS011;4706;41.844;26.082;2023-09-08T11:10:01;5.50;;;3.40;;
9334;SDS011;4706;41.844;26.082;2023-09-08T11:12:28;4.45;;;3.58;;
9334;SDS011;4706;41.844;26.082;2023-09-08T11:14:54;6.82;;;3.70;;
9334;SDS011;4706;41.844;26.082;2023-09-08T11:17:20;5.47;;;3.60;;
9334;SDS011;4706;41.844;26.082;2023-09-08T11:19:46;5.22;;;3.17;;
9334;SDS011;4706;41.844;26.082;2023-09-08T11:22:13;6.38;;;3.38;;
9334;SDS011;4706;41.844;26.082;2023-09-08T11:24:41;5.30;;;3.60;;
9334;SDS011;4706;41.844;26.082;2023-09-08T11:27:07;5.80;;;3.88;;
9334;SDS011;4706;41.844;26.082;2023-09-08T11:29:32;3.38;;;3.08;;
9334;SDS011;4706;41.844;26.082;2023-09-08T11:31:58;3.72;;;3.40;;
9334;SDS011;4706;41.844;26.082;2023-09-08T11:34:23;4.15;;;3.33;;
9334;SDS011;4706;41.844;26.082;2023-09-08T11:36:49;4.25;;;3.78;;
9334;SDS011;4706;41.844;26.082;2023-09-08T11:39:14;5.07;;;3.13;;
9334;SDS011;4706;41.844;26.082;2023-09-08T11:41:41;4.13;;;3.45;;
9334;SDS011;4706;41.844;26.082;2023-09-08T11:44:07;4.78;;;3.28;;
9334;SDS011;4706;41.844;26.082;2023-09-08T11:46:32;4.78;;;3.40;;
9334;SDS011;4706;41.844;26.082;2023-09-08T11:48:58;4.35;;;3.60;;
9334;SDS011;4706;41.844;26.082;2023-09-08T11:51:23;4.10;;;3.55;;
9334;SDS011;4706;41.844;26.082;2023-09-08T11:53:49;3.92;;;3.53;;
9334;SDS011;4706;41.844;26.082;2023-09-08T11:56:15;3.40;;;3.20;;
9334;SDS011;4706;41.844;26.082;2023-09-08T11:58:41;4.97;;;3.70;;
9334;SDS011;4706;41.844;26.082;2023-09-08T12:01:08;5.55;;;3.60;;
9334;SDS011;4706;41.844;26.082;2023-09-08T12:03:34;4.15;;;3.50;;
9334;SDS011;4706;41.844;26.082;2023-09-08T12:06:15;4.35;;;3.10;;
9334;SDS011;4706;41.844;26.082;2023-09-08T12:08:41;4.90;;;3.28;;
9334;SDS011;4706;41.844;26.082;2023-09-08T12:11:06;4.80;;;3.47;;
9334;SDS011;4706;41.844;26.082;2023-09-08T12:13:33;4.38;;;3.45;;
9334;SDS011;4706;41.844;26.082;2023-09-08T12:15:59;3.85;;;3.42;;
9334;SDS011;4706;41.844;26.082;2023-09-08T12:18:37;3.55;;;3.25;;
9334;SDS011;4706;41.844;26.082;2023-09-08T12:21:04;3.92;;;3.35;;
9334;SDS011;4706;41.844;26.082;2023-09-08T12:23:30;4.65;;;3.40;;
9334;SDS011;4706;41.844;26.082;2023-09-08T12:25:56;6.45;;;3.55;;
9334;SDS011;4706;41.844;26.082;2023-09-08T12:28:22;4.88;;;3.47;;
9334;SDS011;4706;41.844;26.082;2023-09-08T12:30:51;5.70;;;3.60;;
9334;SDS011;4706;41.844;26.082;2023-09-08T12:33:18;3.80;;;3.45;;
9334;SDS011;4706;41.844;26.082;2023-09-08T12:35:45;5.10;;;3.38;;
9334;SDS011;4706;41.844;26.082;2023-09-08T12:38:13;6.05;;;3.60;;
9334;SDS011;4706;41.844;26.082;2023-09-08T12:40:39;3.78;;;3.33;;
9334;SDS011;4706;41.844;26.082;2023-09-08T12:43:05;3.78;;;3.40;;
9334;SDS011;4706;41.844;26.082;2023-09-08T12:45:31;5.05;;;3.28;;
9334;SDS011;4706;41.844;26.082;2023-09-08T12:48:00;5.20;;;3.40;;
9334;SDS011;4706;41.844;26.082;2023-09-08T12:50:27;5.88;;;3.40;;
9334;SDS011;4706;41.844;26.082;2023-09-08T12:52:53;5.50;;;3.25;;
9334;SDS011;4706;41.844;26.082;2023-09-08T12:55:19;5.30;;;3.50;;
9334;SDS011;4706;41.844;26.082;2023-09-08T12:57:45;11.02;;;5.63;;
9334;SDS011;4706;41.844;26.082;2023-09-08T13:00:12;4.88;;;3.50;;
9334;SDS011;4706;41.844;26.082;2023-09-08T13:02:38;4.07;;;3.75;;
9334;SDS011;4706;41.844;26.082;2023-09-08T13:05:03;4.78;;;3.95;;
9334;SDS011;4706;41.844;26.082;2023-09-08T13:07:29;5.63;;;4.00;;
9334;SDS011;4706;41.844;26.082;2023-09-08T13:09:55;4.65;;;3.90;;
9334;SDS011;4706;41.844;26.082;2023-09-08T13:12:20;4.45;;;3.97;;
9334;SDS011;4706;41.844;26.082;2023-09-08T13:14:45;5.93;;;3.72;;
9334;SDS011;4706;41.844;26.082;2023-09-08T13:17:11;4.35;;;3.83;;
9334;SDS011;4706;41.844;26.082;2023-09-08T13:19:37;5.43;;;3.97;;
9334;SDS011;4706;41.844;26.082;2023-09-08T13:22:06;5.78;;;4.03;;
9334;SDS011;4706;41.844;26.082;2023-09-08T13:24:32;4.10;;;3.58;;
9334;SDS011;4706;41.844;26.082;2023-09-08T13:26:59;4.63;;;3.90;;
9334;SDS011;4706;41.844;26.082;2023-09-08T13:29:25;4.03;;;3.50;;
9334;SDS011;4706;41.844;26.082;2023-09-08T13:31:52;5.13;;;3.63;;
9334;SDS011;4706;41.844;26.082;2023-09-08T13:34:18;5.13;;;3.80;;
9334;SDS011;4706;41.844;26.082;2023-09-08T13:36:43;4.78;;;3.70;;
9334;SDS011;4706;41.844;26.082;2023-09-08T13:39:09;6.75;;;3.95;;
9334;SDS011;4706;41.844;26.082;2023-09-08T13:44:16;6.43;;;3.90;;
9334;SDS011;4706;41.844;26.082;2023-09-08T13:46:43;4.70;;;3.75;;
9334;SDS011;4706;41.844;26.082;2023-09-08T13:49:08;3.65;;;3.35;;
9334;SDS011;4706;41.844;26.082;2023-09-08T13:51:34;4.88;;;3.35;;
9334;SDS011;4706;41.844;26.082;2023-09-08T13:53:59;6.10;;;4.03;;
9334;SDS011;4706;41.844;26.082;2023-09-08T13:56:25;4.20;;;3.22;;
9334;SDS011;4706;41.844;26.082;2023-09-08T13:58:51;7.45;;;3.30;;
9334;SDS011;4706;41.844;26.082;2023-09-08T14:01:16;6.13;;;3.60;;
9334;SDS011;4706;41.844;26.082;2023-09-08T14:03:42;3.83;;;3.53;;
9334;SDS011;4706;41.844;26.082;2023-09-08T14:06:08;4.82;;;3.13;;
9334;SDS011;4706;41.844;26.082;2023-09-08T14:08:33;4.72;;;3.53;;
9334;SDS011;4706;41.844;26.082;2023-09-08T14:10:59;3.72;;;3.40;;
9334;SDS011;4706;41.844;26.082;2023-09-08T14:13:24;4.28;;;3.45;;
9334;SDS011;4706;41.844;26.082;2023-09-08T14:15:50;5.13;;;3.80;;
9334;SDS011;4706;41.844;26.082;2023-09-08T14:18:16;5.10;;;3.80;;
9334;SDS011;4706;41.844;26.082;2023-09-08T14:20:41;3.97;;;3.58;;
9334;SDS011;4706;41.844;26.082;2023-09-08T14:23:07;4.95;;;3.80;;
9334;SDS011;4706;41.844;26.082;2023-09-08T14:25:34;7.60;;;4.18;;
9334;SDS011;4706;41.844;26.082;2023-09-08T14:28:00;6.07;;;3.67;;
9334;SDS011;4706;41.844;26.082;2023-09-08T14:30:28;4.28;;;3.97;;
9334;SDS011;4706;41.844;26.082;2023-09-08T14:32:54;5.40;;;3.80;;
9334;SDS011;4706;41.844;26.082;2023-09-08T14:35:20;5.03;;;3.95;;
9334;SDS011;4706;41.844;26.082;2023-09-08T14:37:46;6.30;;;3.80;;
9334;SDS011;4706;41.844;26.082;2023-09-08T14:40:13;7.35;;;4.22;;
9334;SDS011;4706;41.844;26.082;2023-09-08T14:42:39;4.55;;;3.70;;
9334;SDS011;4706;41.844;26.082;2023-09-08T14:45:05;4.65;;;3.70;;
9334;SDS011;4706;41.844;26.082;2023-09-08T14:47:31;5.82;;;4.03;;
9334;SDS011;4706;41.844;26.082;2023-09-08T14:49:57;5.28;;;3.80;;
9334;SDS011;4706;41.844;26.082;2023-09-08T14:52:23;4.97;;;3.63;;
9334;SDS011;4706;41.844;26.082;2023-09-08T14:54:48;5.20;;;3.92;;
9334;SDS011;4706;41.844;26.082;2023-09-08T14:57:14;7.05;;;4.07;;
9334;SDS011;4706;41.844;26.082;2023-09-08T14:59:40;4.55;;;3.80;;
9334;SDS011;4706;41.844;26.082;2023-09-08T15:02:06;6.00;;;4.32;;
9334;SDS011;4706;41.844;26.082;2023-09-08T15:04:33;4.15;;;3.75;;
9334;SDS011;4706;41.844;26.082;2023-09-08T15:06:59;7.60;;;4.18;;